sensor_id;sensor_type;location;lat;lon;timestamp;temperature;humidity
55634;DHT22;41504;53.162;6.788;2022-10-14T00:01:41;12.30;93.60
55634;DHT22;41504;53.162;6.788;2022-10-14T00:04:06;12.30;93.60
55634;DHT22;41504;53.162;6.788;2022-10-14T00:06:33;12.30;93.60
55634;DHT22;41504;53.162;6.788;2022-10-14T00:09:02;12.20;93.60
55634;DHT22;41504;53.162;6.788;2022-10-14T00:11:29;12.20;93.60
55634;DHT22;41504;53.162;6.788;2022-10-14T00:14:02;12.20;93.60
55634;DHT22;41504;53.162;6.788;2022-10-14T00:16:30;12.20;93.60
55634;DHT22;41504;53.162;6.788;2022-10-14T00:18:56;12.10;93.40
55634;DHT22;41504;53.162;6.788;2022-10-14T00:21:22;12.10;93.60
55634;DHT22;41504;53.162;6.788;2022-10-14T00:23:49;12.10;93.60
55634;DHT22;41504;53.162;6.788;2022-10-14T00:26:24;12.10;93.60
55634;DHT22;41504;53.162;6.788;2022-10-14T00:28:51;12.10;93.60
55634;DHT22;41504;53.162;6.788;2022-10-14T00:31:18;12.10;93.60
55634;DHT22;41504;53.162;6.788;2022-10-14T00:33:44;12.10;93.60
55634;DHT22;41504;53.162;6.788;2022-10-14T00:36:12;12.00;93.60
55634;DHT22;41504;53.162;6.788;2022-10-14T00:38:38;12.00;93.70
55634;DHT22;41504;53.162;6.788;2022-10-14T00:41:05;12.00;93.70
55634;DHT22;41504;53.162;6.788;2022-10-14T00:43:59;12.10;93.90
55634;DHT22;41504;53.162;6.788;2022-10-14T00:46:28;12.10;93.60
55634;DHT22;41504;53.162;6.788;2022-10-14T00:48:55;12.00;93.70
55634;DHT22;41504;53.162;6.788;2022-10-14T00:51:22;12.00;93.80
55634;DHT22;41504;53.162;6.788;2022-10-14T00:53:47;12.00;93.80
55634;DHT22;41504;53.162;6.788;2022-10-14T00:56:16;12.00;93.80
55634;DHT22;41504;53.162;6.788;2022-10-14T00:58:43;12.00;93.80
55634;DHT22;41504;53.162;6.788;2022-10-14T01:01:10;12.00;93.80
55634;DHT22;41504;53.162;6.788;2022-10-14T01:03:36;11.90;93.80
55634;DHT22;41504;53.162;6.788;2022-10-14T01:06:17;11.90;93.80
55634;DHT22;41504;53.162;6.788;2022-10-14T01:08:52;12.00;93.90
55634;DHT22;41504;53.162;6.788;2022-10-14T01:11:53;11.90;93.60
55634;DHT22;41504;53.162;6.788;2022-10-14T01:14:47;11.90;93.80
55634;DHT22;41504;53.162;6.788;2022-10-14T01:20:42;11.90;93.80
55634;DHT22;41504;53.162;6.788;2022-10-14T01:29:21;11.90;93.80
55634;DHT22;41504;53.162;6.788;2022-10-14T01:31:41;11.90;93.80
55634;DHT22;41504;53.162;6.788;2022-10-14T01:34:09;11.80;93.80
55634;DHT22;41504;53.162;6.788;2022-10-14T01:36:43;11.80;93.80
55634;DHT22;41504;53.162;6.788;2022-10-14T01:39:16;11.80;93.80
55634;DHT22;41504;53.162;6.788;2022-10-14T01:41:46;11.80;93.70
55634;DHT22;41504;53.162;6.788;2022-10-14T01:44:16;11.70;93.70
55634;DHT22;41504;53.162;6.788;2022-10-14T01:46:46;11.70;93.80
55634;DHT22;41504;53.162;6.788;2022-10-14T01:49:31;11.70;93.80
55634;DHT22;41504;53.162;6.788;2022-10-14T01:52:04;11.60;93.80
55634;DHT22;41504;53.162;6.788;2022-10-14T01:54:34;11.60;93.80
55634;DHT22;41504;53.162;6.788;2022-10-14T01:57:04;11.60;93.80
55634;DHT22;41504;53.162;6.788;2022-10-14T01:59:33;11.60;93.70
55634;DHT22;41504;53.162;6.788;2022-10-14T02:02:00;11.50;93.70
55634;DHT22;41504;53.162;6.788;2022-10-14T02:04:26;11.50;93.80
55634;DHT22;41504;53.162;6.788;2022-10-14T02:07:11;11.50;93.80
55634;DHT22;41504;53.162;6.788;2022-10-14T02:13:14;11.40;93.70
55634;DHT22;41504;53.162;6.788;2022-10-14T02:18:50;11.20;93.70
55634;DHT22;41504;53.162;6.788;2022-10-14T02:24:19;11.20;93.80
55634;DHT22;41504;53.162;6.788;2022-10-14T02:26:47;11.20;93.70
55634;DHT22;41504;53.162;6.788;2022-10-14T02:29:16;11.20;93.70
55634;DHT22;41504;53.162;6.788;2022-10-14T02:31:44;11.10;93.70
55634;DHT22;41504;53.162;6.788;2022-10-14T02:34:12;11.10;93.70
55634;DHT22;41504;53.162;6.788;2022-10-14T02:36:41;11.10;93.70
55634;DHT22;41504;53.162;6.788;2022-10-14T02:39:09;11.00;93.60
55634;DHT22;41504;53.162;6.788;2022-10-14T02:41:37;11.00;93.60
55634;DHT22;41504;53.162;6.788;2022-10-14T02:44:06;10.90;93.60
55634;DHT22;41504;53.162;6.788;2022-10-14T02:46:37;10.80;93.70
55634;DHT22;41504;53.162;6.788;2022-10-14T02:49:03;10.90;93.70
55634;DHT22;41504;53.162;6.788;2022-10-14T02:51:29;10.80;93.70
55634;DHT22;41504;53.162;6.788;2022-10-14T02:53:55;10.90;93.80
55634;DHT22;41504;53.162;6.788;2022-10-14T02:56:22;10.90;93.80
55634;DHT22;41504;53.162;6.788;2022-10-14T02:58:48;10.80;93.80
55634;DHT22;41504;53.162;6.788;2022-10-14T03:01:14;10.90;93.80
55634;DHT22;41504;53.162;6.788;2022-10-14T03:03:40;10.90;93.70
55634;DHT22;41504;53.162;6.788;2022-10-14T03:06:05;10.90;93.70
55634;DHT22;41504;53.162;6.788;2022-10-14T03:08:31;10.90;93.80
55634;DHT22;41504;53.162;6.788;2022-10-14T03:10:57;10.90;93.70
55634;DHT22;41504;53.162;6.788;2022-10-14T03:13:23;10.90;93.70
55634;DHT22;41504;53.162;6.788;2022-10-14T03:15:49;10.80;93.70
55634;DHT22;41504;53.162;6.788;2022-10-14T03:18:15;10.80;93.70
55634;DHT22;41504;53.162;6.788;2022-10-14T03:20:45;10.70;93.70
55634;DHT22;41504;53.162;6.788;2022-10-14T03:23:11;10.70;93.70
55634;DHT22;41504;53.162;6.788;2022-10-14T03:25:37;10.70;93.70
55634;DHT22;41504;53.162;6.788;2022-10-14T03:28:02;10.70;93.70
55634;DHT22;41504;53.162;6.788;2022-10-14T03:30:28;10.70;93.70
55634;DHT22;41504;53.162;6.788;2022-10-14T03:32:54;10.70;93.80
55634;DHT22;41504;53.162;6.788;2022-10-14T03:37:51;10.70;93.70
55634;DHT22;41504;53.162;6.788;2022-10-14T03:40:18;10.70;93.70
55634;DHT22;41504;53.162;6.788;2022-10-14T03:42:43;10.60;93.60
55634;DHT22;41504;53.162;6.788;2022-10-14T03:45:09;10.70;93.70
55634;DHT22;41504;53.162;6.788;2022-10-14T03:47:35;10.70;93.60
55634;DHT22;41504;53.162;6.788;2022-10-14T03:50:01;10.60;93.70
55634;DHT22;41504;53.162;6.788;2022-10-14T03:52:30;10.60;93.70
55634;DHT22;41504;53.162;6.788;2022-10-14T03:54:55;10.60;93.70
55634;DHT22;41504;53.162;6.788;2022-10-14T03:57:21;10.50;93.60
55634;DHT22;41504;53.162;6.788;2022-10-14T03:59:47;10.50;93.60
55634;DHT22;41504;53.162;6.788;2022-10-14T04:02:12;10.50;93.60
55634;DHT22;41504;53.162;6.788;2022-10-14T04:04:41;10.40;93.60
55634;DHT22;41504;53.162;6.788;2022-10-14T04:07:06;10.40;93.90
55634;DHT22;41504;53.162;6.788;2022-10-14T04:09:32;10.40;93.80
55634;DHT22;41504;53.162;6.788;2022-10-14T04:11:58;10.50;93.80
55634;DHT22;41504;53.162;6.788;2022-10-14T04:14:27;10.50;93.80
55634;DHT22;41504;53.162;6.788;2022-10-14T04:16:52;10.50;93.80
55634;DHT22;41504;53.162;6.788;2022-10-14T04:19:18;10.50;93.80
55634;DHT22;41504;53.162;6.788;2022-10-14T04:21:44;10.60;93.80
55634;DHT22;41504;53.162;6.788;2022-10-14T04:24:10;10.60;93.80
55634;DHT22;41504;53.162;6.788;2022-10-14T04:26:36;10.60;93.80
55634;DHT22;41504;53.162;6.788;2022-10-14T04:29:01;10.70;93.70
55634;DHT22;41504;53.162;6.788;2022-10-14T04:31:27;10.70;93.70
55634;DHT22;41504;53.162;6.788;2022-10-14T04:33:53;10.70;93.70
55634;DHT22;41504;53.162;6.788;2022-10-14T04:36:19;10.70;93.70
55634;DHT22;41504;53.162;6.788;2022-10-14T04:38:44;10.70;93.70
55634;DHT22;41504;53.162;6.788;2022-10-14T04:41:10;10.70;93.80
55634;DHT22;41504;53.162;6.788;2022-10-14T04:43:35;10.70;93.80
55634;DHT22;41504;53.162;6.788;2022-10-14T04:46:01;10.70;93.80
55634;DHT22;41504;53.162;6.788;2022-10-14T04:48:27;10.70;93.80
55634;DHT22;41504;53.162;6.788;2022-10-14T04:50:53;10.70;93.80
55634;DHT22;41504;53.162;6.788;2022-10-14T04:53:19;10.80;93.80
55634;DHT22;41504;53.162;6.788;2022-10-14T04:55:45;10.80;93.80
55634;DHT22;41504;53.162;6.788;2022-10-14T04:58:14;10.80;93.80
55634;DHT22;41504;53.162;6.788;2022-10-14T05:00:41;10.80;93.80
55634;DHT22;41504;53.162;6.788;2022-10-14T05:03:07;10.80;93.80
55634;DHT22;41504;53.162;6.788;2022-10-14T05:05:32;10.70;93.70
55634;DHT22;41504;53.162;6.788;2022-10-14T05:07:58;10.80;93.80
55634;DHT22;41504;53.162;6.788;2022-10-14T05:10:24;10.80;93.80
55634;DHT22;41504;53.162;6.788;2022-10-14T05:12:50;10.70;93.80
55634;DHT22;41504;53.162;6.788;2022-10-14T05:15:16;10.70;93.80
55634;DHT22;41504;53.162;6.788;2022-10-14T05:17:42;10.70;93.80
55634;DHT22;41504;53.162;6.788;2022-10-14T05:20:10;10.70;93.80
55634;DHT22;41504;53.162;6.788;2022-10-14T05:22:37;10.80;93.90
55634;DHT22;41504;53.162;6.788;2022-10-14T05:25:03;10.80;93.90
55634;DHT22;41504;53.162;6.788;2022-10-14T05:27:28;10.80;93.90
55634;DHT22;41504;53.162;6.788;2022-10-14T05:29:54;10.80;93.90
55634;DHT22;41504;53.162;6.788;2022-10-14T05:32:20;10.80;93.90
55634;DHT22;41504;53.162;6.788;2022-10-14T05:34:46;10.80;93.90
55634;DHT22;41504;53.162;6.788;2022-10-14T05:37:14;10.70;93.80
55634;DHT22;41504;53.162;6.788;2022-10-14T05:39:42;10.80;93.90
55634;DHT22;41504;53.162;6.788;2022-10-14T05:42:08;10.80;93.90
55634;DHT22;41504;53.162;6.788;2022-10-14T05:44:34;10.70;94.10
55634;DHT22;41504;53.162;6.788;2022-10-14T05:46:59;10.80;93.90
55634;DHT22;41504;53.162;6.788;2022-10-14T05:49:25;10.80;93.90
55634;DHT22;41504;53.162;6.788;2022-10-14T05:51:51;10.80;93.90
55634;DHT22;41504;53.162;6.788;2022-10-14T05:54:17;10.80;93.90
55634;DHT22;41504;53.162;6.788;2022-10-14T05:56:42;10.80;93.90
55634;DHT22;41504;53.162;6.788;2022-10-14T17:17:08;13.90;91.80
55634;DHT22;41504;53.162;6.788;2022-10-14T17:19:35;13.90;92.40
55634;DHT22;41504;53.162;6.788;2022-10-14T17:22:03;13.90;92.80
55634;DHT22;41504;53.162;6.788;2022-10-14T17:24:29;14.00;93.20
55634;DHT22;41504;53.162;6.788;2022-10-14T17:26:55;13.90;93.60
55634;DHT22;41504;53.162;6.788;2022-10-14T17:29:21;13.90;93.90
55634;DHT22;41504;53.162;6.788;2022-10-14T17:31:50;13.90;94.20
55634;DHT22;41504;53.162;6.788;2022-10-14T17:34:16;14.00;94.70
55634;DHT22;41504;53.162;6.788;2022-10-14T17:36:42;14.00;94.70
55634;DHT22;41504;53.162;6.788;2022-10-14T17:39:08;14.00;94.90
55634;DHT22;41504;53.162;6.788;2022-10-14T17:41:37;14.00;95.10
55634;DHT22;41504;53.162;6.788;2022-10-14T17:44:03;14.00;95.20
55634;DHT22;41504;53.162;6.788;2022-10-14T17:46:29;14.00;95.30
55634;DHT22;41504;53.162;6.788;2022-10-14T17:49:05;14.00;95.50
55634;DHT22;41504;53.162;6.788;2022-10-14T17:51:37;14.00;95.60
55634;DHT22;41504;53.162;6.788;2022-10-14T17:54:06;14.10;95.80
55634;DHT22;41504;53.162;6.788;2022-10-14T17:56:34;14.00;95.80
55634;DHT22;41504;53.162;6.788;2022-10-14T17:59:02;14.10;95.90
55634;DHT22;41504;53.162;6.788;2022-10-14T18:01:29;14.00;96.00
55634;DHT22;41504;53.162;6.788;2022-10-14T18:03:56;14.00;96.00
55634;DHT22;41504;53.162;6.788;2022-10-14T18:06:33;14.00;96.10
55634;DHT22;41504;53.162;6.788;2022-10-14T18:09:01;14.00;96.20
55634;DHT22;41504;53.162;6.788;2022-10-14T18:11:29;14.10;96.20
55634;DHT22;41504;53.162;6.788;2022-10-14T18:14:00;14.00;96.20
55634;DHT22;41504;53.162;6.788;2022-10-14T18:16:30;14.00;96.30
55634;DHT22;41504;53.162;6.788;2022-10-14T18:18:59;14.00;96.30
55634;DHT22;41504;53.162;6.788;2022-10-14T18:21:26;14.00;96.30
55634;DHT22;41504;53.162;6.788;2022-10-14T18:23:52;14.00;96.30
55634;DHT22;41504;53.162;6.788;2022-10-14T18:26:21;14.10;96.40
55634;DHT22;41504;53.162;6.788;2022-10-14T18:28:57;14.00;96.40
55634;DHT22;41504;53.162;6.788;2022-10-14T18:31:28;14.00;96.40
55634;DHT22;41504;53.162;6.788;2022-10-14T18:33:55;14.00;96.40
55634;DHT22;41504;53.162;6.788;2022-10-14T18:36:27;14.00;96.40
55634;DHT22;41504;53.162;6.788;2022-10-14T18:38:55;14.00;96.30
55634;DHT22;41504;53.162;6.788;2022-10-14T18:41:22;14.00;96.30
55634;DHT22;41504;53.162;6.788;2022-10-14T18:43:48;14.00;96.30
55634;DHT22;41504;53.162;6.788;2022-10-14T18:46:17;14.00;96.30
55634;DHT22;41504;53.162;6.788;2022-10-14T18:48:45;14.00;96.20
55634;DHT22;41504;53.162;6.788;2022-10-14T18:51:12;14.00;96.20
55634;DHT22;41504;53.162;6.788;2022-10-14T18:53:40;14.00;96.20
55634;DHT22;41504;53.162;6.788;2022-10-14T18:56:11;13.90;96.20
55634;DHT22;41504;53.162;6.788;2022-10-14T18:58:44;13.90;96.10
55634;DHT22;41504;53.162;6.788;2022-10-14T19:01:11;13.90;96.10
55634;DHT22;41504;53.162;6.788;2022-10-14T19:03:38;13.90;96.10
55634;DHT22;41504;53.162;6.788;2022-10-14T19:06:08;13.90;96.10
55634;DHT22;41504;53.162;6.788;2022-10-14T19:08:35;13.80;96.00
55634;DHT22;41504;53.162;6.788;2022-10-14T19:11:17;13.90;96.00
55634;DHT22;41504;53.162;6.788;2022-10-14T19:13:48;13.80;96.00
55634;DHT22;41504;53.162;6.788;2022-10-14T19:16:29;13.80;96.00
55634;DHT22;41504;53.162;6.788;2022-10-14T19:18:58;13.80;96.00
55634;DHT22;41504;53.162;6.788;2022-10-14T19:21:25;13.70;95.90
55634;DHT22;41504;53.162;6.788;2022-10-14T19:23:57;13.70;95.90
55634;DHT22;41504;53.162;6.788;2022-10-14T19:26:27;13.70;95.90
55634;DHT22;41504;53.162;6.788;2022-10-14T19:28:53;13.70;95.90
55634;DHT22;41504;53.162;6.788;2022-10-14T19:31:24;13.70;95.90
55634;DHT22;41504;53.162;6.788;2022-10-14T19:33:51;13.60;95.80
55634;DHT22;41504;53.162;6.788;2022-10-14T19:36:18;13.60;95.80
55634;DHT22;41504;53.162;6.788;2022-10-14T19:38:53;13.60;95.80
55634;DHT22;41504;53.162;6.788;2022-10-14T19:41:22;13.60;95.70
55634;DHT22;41504;53.162;6.788;2022-10-14T19:43:48;13.60;95.70
55634;DHT22;41504;53.162;6.788;2022-10-14T19:46:14;13.50;95.70
55634;DHT22;41504;53.162;6.788;2022-10-14T19:48:40;13.50;95.70
55634;DHT22;41504;53.162;6.788;2022-10-14T19:51:07;13.50;95.70
55634;DHT22;41504;53.162;6.788;2022-10-14T19:53:37;13.50;95.60
55634;DHT22;41504;53.162;6.788;2022-10-14T19:56:08;13.50;95.60
55634;DHT22;41504;53.162;6.788;2022-10-14T19:58:34;13.50;95.60
55634;DHT22;41504;53.162;6.788;2022-10-14T20:01:30;13.50;95.60
55634;DHT22;41504;53.162;6.788;2022-10-14T20:03:58;13.40;95.50
55634;DHT22;41504;53.162;6.788;2022-10-14T20:06:24;13.40;95.60
55634;DHT22;41504;53.162;6.788;2022-10-14T20:08:51;13.40;95.50
55634;DHT22;41504;53.162;6.788;2022-10-14T20:11:18;13.40;95.60
55634;DHT22;41504;53.162;6.788;2022-10-14T20:13:46;13.40;95.50
55634;DHT22;41504;53.162;6.788;2022-10-14T20:16:12;13.30;95.50
55634;DHT22;41504;53.162;6.788;2022-10-14T20:18:38;13.30;95.50
55634;DHT22;41504;53.162;6.788;2022-10-14T20:21:05;13.30;95.50
55634;DHT22;41504;53.162;6.788;2022-10-14T20:23:36;13.30;95.50
55634;DHT22;41504;53.162;6.788;2022-10-14T20:26:26;13.30;95.50
55634;DHT22;41504;53.162;6.788;2022-10-14T20:28:51;13.20;95.40
55634;DHT22;41504;53.162;6.788;2022-10-14T20:31:21;13.20;95.50
55634;DHT22;41504;53.162;6.788;2022-10-14T20:33:47;13.30;95.50
55634;DHT22;41504;53.162;6.788;2022-10-14T20:36:22;13.20;95.40
55634;DHT22;41504;53.162;6.788;2022-10-14T20:38:48;13.20;95.40
55634;DHT22;41504;53.162;6.788;2022-10-14T20:41:20;13.20;95.40
55634;DHT22;41504;53.162;6.788;2022-10-14T20:43:47;13.10;95.30
55634;DHT22;41504;53.162;6.788;2022-10-14T20:46:13;13.10;95.30
55634;DHT22;41504;53.162;6.788;2022-10-14T20:48:39;13.10;95.50
55634;DHT22;41504;53.162;6.788;2022-10-14T20:51:08;13.10;95.30
55634;DHT22;41504;53.162;6.788;2022-10-14T20:53:35;13.10;95.30
55634;DHT22;41504;53.162;6.788;2022-10-14T20:56:02;13.10;95.30
55634;DHT22;41504;53.162;6.788;2022-10-14T20:58:29;13.00;95.30
55634;DHT22;41504;53.162;6.788;2022-10-14T21:01:06;13.00;95.30
55634;DHT22;41504;53.162;6.788;2022-10-14T21:03:32;13.00;95.20
55634;DHT22;41504;53.162;6.788;2022-10-14T21:06:03;13.00;95.20
55634;DHT22;41504;53.162;6.788;2022-10-14T21:08:29;13.00;95.20
55634;DHT22;41504;53.162;6.788;2022-10-14T21:11:00;13.00;95.20
55634;DHT22;41504;53.162;6.788;2022-10-14T21:13:27;13.00;95.20
55634;DHT22;41504;53.162;6.788;2022-10-14T21:15:56;13.00;95.20
55634;DHT22;41504;53.162;6.788;2022-10-14T21:18:23;12.90;95.20
55634;DHT22;41504;53.162;6.788;2022-10-14T21:20:49;12.90;95.20
55634;DHT22;41504;53.162;6.788;2022-10-14T21:23:15;12.90;95.20
55634;DHT22;41504;53.162;6.788;2022-10-14T21:25:41;12.90;95.20
55634;DHT22;41504;53.162;6.788;2022-10-14T21:28:07;12.90;95.20
55634;DHT22;41504;53.162;6.788;2022-10-14T21:30:33;12.90;95.20
55634;DHT22;41504;53.162;6.788;2022-10-14T21:32:58;12.90;95.20
55634;DHT22;41504;53.162;6.788;2022-10-14T21:35:25;12.80;95.20
55634;DHT22;41504;53.162;6.788;2022-10-14T21:37:51;12.80;95.20
55634;DHT22;41504;53.162;6.788;2022-10-14T21:40:18;12.80;95.10
55634;DHT22;41504;53.162;6.788;2022-10-14T21:42:43;12.90;95.20
55634;DHT22;41504;53.162;6.788;2022-10-14T21:45:09;12.80;95.10
55634;DHT22;41504;53.162;6.788;2022-10-14T21:47:35;12.80;95.10
55634;DHT22;41504;53.162;6.788;2022-10-14T21:50:04;12.80;95.10
55634;DHT22;41504;53.162;6.788;2022-10-14T21:52:30;12.80;95.10
55634;DHT22;41504;53.162;6.788;2022-10-14T21:54:55;12.80;95.10
55634;DHT22;41504;53.162;6.788;2022-10-14T21:57:21;12.80;95.10
55634;DHT22;41504;53.162;6.788;2022-10-14T21:59:47;12.80;95.00
55634;DHT22;41504;53.162;6.788;2022-10-14T22:02:12;12.80;95.00
55634;DHT22;41504;53.162;6.788;2022-10-14T22:04:38;12.80;95.00
55634;DHT22;41504;53.162;6.788;2022-10-14T22:07:04;12.80;95.00
55634;DHT22;41504;53.162;6.788;2022-10-14T22:09:31;12.80;95.00
55634;DHT22;41504;53.162;6.788;2022-10-14T22:11:56;12.80;95.00
55634;DHT22;41504;53.162;6.788;2022-10-14T22:14:28;12.80;95.00
55634;DHT22;41504;53.162;6.788;2022-10-14T22:16:53;12.80;95.00
55634;DHT22;41504;53.162;6.788;2022-10-14T22:19:19;12.80;95.00
55634;DHT22;41504;53.162;6.788;2022-10-14T22:21:45;12.80;94.90
55634;DHT22;41504;53.162;6.788;2022-10-14T22:24:13;12.70;94.90
55634;DHT22;41504;53.162;6.788;2022-10-14T22:26:39;12.80;94.90
55634;DHT22;41504;53.162;6.788;2022-10-14T22:29:09;12.70;94.90
55634;DHT22;41504;53.162;6.788;2022-10-14T22:31:36;12.70;94.90
55634;DHT22;41504;53.162;6.788;2022-10-14T22:34:04;12.70;95.00
55634;DHT22;41504;53.162;6.788;2022-10-14T22:36:31;12.70;95.00
55634;DHT22;41504;53.162;6.788;2022-10-14T22:38:58;12.70;94.90
55634;DHT22;41504;53.162;6.788;2022-10-14T22:41:31;12.70;94.90
55634;DHT22;41504;53.162;6.788;2022-10-14T22:43:57;12.70;94.90
55634;DHT22;41504;53.162;6.788;2022-10-14T22:46:25;12.60;94.90
55634;DHT22;41504;53.162;6.788;2022-10-14T22:48:53;12.70;94.90
55634;DHT22;41504;53.162;6.788;2022-10-14T22:51:24;12.60;94.90
55634;DHT22;41504;53.162;6.788;2022-10-14T22:53:50;12.70;94.90
55634;DHT22;41504;53.162;6.788;2022-10-14T22:56:19;12.70;94.90
55634;DHT22;41504;53.162;6.788;2022-10-14T22:58:54;12.60;94.90
55634;DHT22;41504;53.162;6.788;2022-10-14T23:01:21;12.60;94.90
55634;DHT22;41504;53.162;6.788;2022-10-14T23:03:47;12.60;94.90
55634;DHT22;41504;53.162;6.788;2022-10-14T23:06:14;12.60;94.80
55634;DHT22;41504;53.162;6.788;2022-10-14T23:08:40;12.60;94.90
55634;DHT22;41504;53.162;6.788;2022-10-14T23:11:07;12.60;94.90
55634;DHT22;41504;53.162;6.788;2022-10-14T23:13:34;12.60;94.90
55634;DHT22;41504;53.162;6.788;2022-10-14T23:16:02;12.60;94.90
55634;DHT22;41504;53.162;6.788;2022-10-14T23:18:30;12.60;94.90
55634;DHT22;41504;53.162;6.788;2022-10-14T23:21:07;12.60;94.90
55634;DHT22;41504;53.162;6.788;2022-10-14T23:23:33;12.60;94.90
55634;DHT22;41504;53.162;6.788;2022-10-14T23:25:58;12.50;94.80
55634;DHT22;41504;53.162;6.788;2022-10-14T23:28:24;12.50;94.80
55634;DHT22;41504;53.162;6.788;2022-10-14T23:30:50;12.50;94.90
55634;DHT22;41504;53.162;6.788;2022-10-14T23:33:16;12.50;94.90
55634;DHT22;41504;53.162;6.788;2022-10-14T23:35:42;12.50;94.80
55634;DHT22;41504;53.162;6.788;2022-10-14T23:38:10;12.50;94.80
55634;DHT22;41504;53.162;6.788;2022-10-14T23:40:36;12.50;94.80
55634;DHT22;41504;53.162;6.788;2022-10-14T23:43:02;12.50;94.80
55634;DHT22;41504;53.162;6.788;2022-10-14T23:45:28;12.50;94.80
55634;DHT22;41504;53.162;6.788;2022-10-14T23:47:54;12.50;94.80
55634;DHT22;41504;53.162;6.788;2022-10-14T23:50:19;12.50;94.80
55634;DHT22;41504;53.162;6.788;2022-10-14T23:52:51;12.50;94.80
55634;DHT22;41504;53.162;6.788;2022-10-14T23:55:16;12.60;94.80
55634;DHT22;41504;53.162;6.788;2022-10-14T23:57:42;12.50;94.80
